createdAt,value
2024-03-13T00:01:04.911Z,0.40
2024-03-13T00:03:33.496Z,0.52
2024-03-13T00:06:01.283Z,0.40
2024-03-13T00:08:28.195Z,0.40
2024-03-13T00:13:23.607Z,0.30
2024-03-13T00:15:50.899Z,0.50
2024-03-13T00:18:17.788Z,0.50
2024-03-13T00:23:11.147Z,0.30
2024-03-13T00:25:37.784Z,0.30
2024-03-13T00:28:04.764Z,0.20
2024-03-13T00:30:31.522Z,0.38
2024-03-13T00:32:58.313Z,0.22
2024-03-13T00:35:25.381Z,0.50
2024-03-13T00:37:52.206Z,0.20
2024-03-13T00:42:46.219Z,0.30
2024-03-13T00:45:13.092Z,0.22
2024-03-13T00:47:40.206Z,0.30
2024-03-13T00:50:09.257Z,0.77
2024-03-13T00:52:37.812Z,0.45
2024-03-13T00:55:05.022Z,0.30
2024-03-13T00:57:31.737Z,0.40
2024-03-13T00:59:59.833Z,0.40
2024-03-13T01:02:26.616Z,0.50
2024-03-13T01:04:55.925Z,1.05
2024-03-13T01:07:23.664Z,0.60
2024-03-13T01:09:51.273Z,1.00
2024-03-13T01:12:20.638Z,1.00
2024-03-13T01:14:47.525Z,1.15
2024-03-13T01:17:14.176Z,1.00
2024-03-13T01:19:40.822Z,1.38
2024-03-13T01:22:11.696Z,0.98
2024-03-13T01:24:39.751Z,1.23
2024-03-13T01:27:06.676Z,1.17
2024-03-13T01:29:33.381Z,1.10
2024-03-13T01:32:00.090Z,0.93
2024-03-13T01:34:27.842Z,1.25
2024-03-13T01:37:13.535Z,1.60
2024-03-13T01:39:40.257Z,0.85
2024-03-13T01:42:25.413Z,1.10
2024-03-13T01:45:30.594Z,1.65
2024-03-13T01:48:18.290Z,0.85
2024-03-13T01:51:05.626Z,1.00
2024-03-13T01:53:53.986Z,0.75
2024-03-13T01:56:27.637Z,0.90
2024-03-13T01:59:09.006Z,0.70
2024-03-13T02:01:54.327Z,1.15
2024-03-13T02:04:22.048Z,0.90
2024-03-13T02:06:48.855Z,0.85
2024-03-13T02:11:43.357Z,0.82
2024-03-13T02:14:10.108Z,0.57
2024-03-13T02:16:36.880Z,0.80
2024-03-13T02:21:31.892Z,0.28
2024-03-13T02:23:58.528Z,0.60
2024-03-13T02:26:26.311Z,0.57
2024-03-13T02:28:53.563Z,0.50
2024-03-13T02:31:20.982Z,0.73
2024-03-13T02:33:47.999Z,0.60
2024-03-13T02:36:15.246Z,0.70
2024-03-13T02:38:42.050Z,0.88
2024-03-13T02:43:38.050Z,0.30
2024-03-13T02:46:04.977Z,0.20
2024-03-13T02:50:58.609Z,0.45
2024-03-13T02:53:25.335Z,0.20
2024-03-13T02:55:55.112Z,0.20
2024-03-13T02:58:23.139Z,0.30
2024-03-13T03:00:50.351Z,0.15
2024-03-13T03:03:17.883Z,0.20
2024-03-13T03:05:46.915Z,0.20
2024-03-13T03:08:13.683Z,0.10
2024-03-13T03:10:40.392Z,0.10
2024-03-13T03:13:09.952Z,0.30
2024-03-13T03:15:37.539Z,0.10
2024-03-13T03:18:05.281Z,0.10
2024-03-13T03:20:32.540Z,0.10
2024-03-13T03:22:59.850Z,0.15
2024-03-13T03:25:29.594Z,0.00
2024-03-13T03:27:58.349Z,0.10
2024-03-13T03:30:27.072Z,0.10
2024-03-13T03:32:56.809Z,0.10
2024-03-13T03:35:24.789Z,0.10
2024-03-13T03:37:52.262Z,0.00
2024-03-13T03:40:19.311Z,0.00
2024-03-13T03:42:47.938Z,0.00
2024-03-13T03:45:14.713Z,0.00
2024-03-13T03:47:41.422Z,0.03
2024-03-13T03:50:08.467Z,0.00
2024-03-13T03:52:35.873Z,0.00
2024-03-13T03:55:04.214Z,0.00
2024-03-13T03:57:31.022Z,0.00
2024-03-13T03:59:57.718Z,0.00
2024-03-13T04:02:24.509Z,0.00
2024-03-13T04:07:17.740Z,0.40
2024-03-13T04:09:44.407Z,0.20
2024-03-13T04:12:11.131Z,0.00
2024-03-13T04:14:38.502Z,0.00
2024-03-13T04:17:05.215Z,0.00
2024-03-13T04:19:31.919Z,0.00
2024-03-13T04:22:00.121Z,0.00
2024-03-13T04:24:26.903Z,0.00
2024-03-13T04:26:53.633Z,0.00
2024-03-13T04:29:23.109Z,0.00
2024-03-13T04:31:53.168Z,0.00
2024-03-13T04:34:20.076Z,0.00
2024-03-13T04:36:48.478Z,0.00
2024-03-13T04:39:17.037Z,0.00
2024-03-13T04:41:43.823Z,0.00
2024-03-13T04:44:11.063Z,0.00
2024-03-13T04:46:39.494Z,0.00
2024-03-13T04:49:06.366Z,0.00
2024-03-13T04:53:59.585Z,0.00
2024-03-13T04:56:26.230Z,0.00
2024-03-13T04:58:53.522Z,0.10
2024-03-13T05:01:20.502Z,0.00
2024-03-13T05:03:48.088Z,0.20
2024-03-13T05:06:15.115Z,0.20
2024-03-13T05:08:42.092Z,0.25
2024-03-13T05:11:12.089Z,0.00
2024-03-13T05:13:39.840Z,0.10
2024-03-13T05:16:07.568Z,0.40
2024-03-13T05:18:35.970Z,0.00
2024-03-13T05:21:02.831Z,0.28
2024-03-13T05:25:56.965Z,0.25
2024-03-13T05:28:24.065Z,0.10
2024-03-13T05:30:51.061Z,0.20
2024-03-13T05:33:17.837Z,0.17
2024-03-13T05:35:44.516Z,0.20
2024-03-13T05:38:11.976Z,0.10
2024-03-13T05:40:39.063Z,0.00
2024-03-13T05:43:05.833Z,0.10
2024-03-13T05:48:03.806Z,0.10
2024-03-13T05:50:30.796Z,0.00
2024-03-13T05:52:57.476Z,0.95
2024-03-13T05:55:25.527Z,2.22
2024-03-13T05:57:52.411Z,1.40
2024-03-13T06:02:47.518Z,0.60
2024-03-13T06:05:16.158Z,0.93
2024-03-13T06:07:43.352Z,0.60
2024-03-13T06:10:13.388Z,0.28
2024-03-13T06:12:40.175Z,0.90
2024-03-13T06:17:41.389Z,2.85
2024-03-13T06:20:14.425Z,3.47
2024-03-13T06:22:41.905Z,4.85
2024-03-13T06:25:13.856Z,6.75
2024-03-13T06:27:41.527Z,7.22
2024-03-13T06:30:10.140Z,6.97
2024-03-13T06:32:37.206Z,6.30
2024-03-13T06:37:36.890Z,7.07
2024-03-13T06:40:05.473Z,9.40
2024-03-13T06:42:32.747Z,7.35
2024-03-13T06:44:59.603Z,5.22
2024-03-13T06:47:26.357Z,4.40
2024-03-13T06:52:19.754Z,5.97
2024-03-13T06:57:13.774Z,3.90
2024-03-13T06:59:40.898Z,4.88
2024-03-13T07:02:11.504Z,6.70
2024-03-13T07:04:38.352Z,8.73
2024-03-13T07:09:32.950Z,8.80
2024-03-13T07:11:59.806Z,6.32
2024-03-13T07:16:53.546Z,6.05
2024-03-13T07:19:21.839Z,6.55
2024-03-13T07:21:49.062Z,5.18
2024-03-13T07:24:15.828Z,5.97
2024-03-13T07:26:43.375Z,7.53
2024-03-13T07:29:10.746Z,6.20
2024-03-13T07:31:40.691Z,4.57
2024-03-13T07:34:11.288Z,2.97
2024-03-13T07:36:39.641Z,2.05
2024-03-13T07:39:12.422Z,1.45
2024-03-13T07:44:10.291Z,1.77
2024-03-13T07:46:37.062Z,1.73
2024-03-13T07:49:04.437Z,1.85
2024-03-13T07:51:31.352Z,2.90
2024-03-13T07:53:58.157Z,1.27
2024-03-13T07:58:52.556Z,1.92
2024-03-13T08:01:19.999Z,2.10
2024-03-13T08:03:46.819Z,1.50
2024-03-13T09:06:43.989Z,4.25
2024-03-13T09:09:10.951Z,3.90
2024-03-13T09:11:38.949Z,4.20
2024-03-13T09:14:08.975Z,2.50
2024-03-13T09:16:37.275Z,3.03
2024-03-13T09:19:05.380Z,2.15
2024-03-13T09:21:32.301Z,1.80
2024-03-13T09:23:59.565Z,2.20
2024-03-13T09:26:26.837Z,2.58
2024-03-13T09:28:56.612Z,2.30
2024-03-13T09:31:25.458Z,1.70
2024-03-13T09:33:52.478Z,2.00
2024-03-13T09:36:19.417Z,3.50
2024-03-13T09:38:46.092Z,1.85
2024-03-13T09:43:41.869Z,1.75
2024-03-13T09:46:10.284Z,2.70
2024-03-13T09:48:40.865Z,3.20
2024-03-13T09:51:11.537Z,1.83
2024-03-13T09:53:42.343Z,1.88
2024-03-13T09:56:16.315Z,2.13
2024-03-13T09:58:47.066Z,2.45
2024-03-13T10:01:28.189Z,1.90
2024-03-13T10:04:03.856Z,1.63
2024-03-13T10:06:34.013Z,1.67
2024-03-13T10:09:03.530Z,2.20
2024-03-13T10:11:31.444Z,1.60
2024-03-13T10:14:00.450Z,2.78
2024-03-13T10:16:31.367Z,1.70
2024-03-13T10:18:59.431Z,1.65
2024-03-13T10:21:29.881Z,1.60
2024-03-13T10:23:57.745Z,2.00
2024-03-13T10:26:25.706Z,1.67
2024-03-13T10:28:52.541Z,1.27
2024-03-13T10:31:19.456Z,1.95
2024-03-13T10:33:46.324Z,2.05
2024-03-13T10:36:13.190Z,2.15
2024-03-13T10:38:43.247Z,1.85
2024-03-13T10:41:13.082Z,2.63
2024-03-13T10:43:42.399Z,1.90
2024-03-13T10:46:13.057Z,2.83
2024-03-13T10:48:42.648Z,2.30
2024-03-13T10:51:13.957Z,2.17
2024-03-13T10:53:43.956Z,2.10
2024-03-13T10:56:15.845Z,1.92
2024-03-13T10:58:49.550Z,2.10
2024-03-13T11:01:18.414Z,1.77
2024-03-13T11:03:47.445Z,1.48
2024-03-13T11:06:16.508Z,1.38
2024-03-13T11:08:43.806Z,1.30
2024-03-13T11:11:20.756Z,1.00
2024-03-13T11:13:55.673Z,1.77
2024-03-13T11:16:24.583Z,3.63
2024-03-13T11:18:52.727Z,3.63
2024-03-13T11:21:34.643Z,5.75
2024-03-13T11:24:04.162Z,3.75
2024-03-13T11:26:38.586Z,1.70
2024-03-13T11:29:13.152Z,1.48
2024-03-13T11:31:42.722Z,1.02
2024-03-13T11:34:10.668Z,1.25
2024-03-13T11:36:37.865Z,1.45
2024-03-13T11:39:05.561Z,1.20
2024-03-13T11:41:32.851Z,1.13
2024-03-13T11:43:59.882Z,1.20
2024-03-13T11:46:49.267Z,1.00
2024-03-13T11:49:16.644Z,1.00
2024-03-13T11:52:05.629Z,1.73
2024-03-13T11:54:36.112Z,0.52
2024-03-13T11:57:07.253Z,0.40
2024-03-13T11:59:50.816Z,0.55
2024-03-13T12:02:32.675Z,0.63
2024-03-13T12:05:07.973Z,0.60
2024-03-13T12:07:38.232Z,0.65
2024-03-13T12:10:05.227Z,0.60
2024-03-13T12:12:32.625Z,0.50
2024-03-13T12:14:59.318Z,0.35
2024-03-13T12:19:52.608Z,0.75
2024-03-13T12:24:48.570Z,0.32
2024-03-13T12:27:16.083Z,0.45
2024-03-13T12:29:42.920Z,0.30
2024-03-13T12:32:10.457Z,0.70
2024-03-13T12:34:37.599Z,0.60
2024-03-13T12:37:09.249Z,0.60
2024-03-13T12:39:37.704Z,1.83
2024-03-13T12:44:33.480Z,1.40
2024-03-13T12:47:01.368Z,0.80
2024-03-13T12:49:28.396Z,0.22
2024-03-13T12:51:56.150Z,0.35
2024-03-13T12:54:28.956Z,0.22
2024-03-13T12:56:56.348Z,0.98
2024-03-13T12:59:23.290Z,1.65
2024-03-13T13:01:51.035Z,0.63
2024-03-13T13:04:19.525Z,2.63
2024-03-13T13:06:49.809Z,2.08
2024-03-13T13:09:16.823Z,0.50
2024-03-13T13:11:45.829Z,0.40
2024-03-13T13:14:12.962Z,0.50
2024-03-13T13:19:07.044Z,0.30
2024-03-13T13:21:33.733Z,0.20
2024-03-13T13:26:27.516Z,0.20
2024-03-13T13:29:08.486Z,0.40
2024-03-13T13:31:35.887Z,0.10
2024-03-13T13:34:02.933Z,0.60
2024-03-13T13:36:29.679Z,0.80
2024-03-13T13:41:23.050Z,0.32
2024-03-13T13:46:16.758Z,0.43
2024-03-13T13:48:43.630Z,0.32
2024-03-13T13:51:11.604Z,0.60
2024-03-13T13:53:38.421Z,0.80
2024-03-13T13:56:05.990Z,1.10
2024-03-13T13:58:33.033Z,0.50
2024-03-13T14:01:01.201Z,0.10
2024-03-13T14:03:28.833Z,0.20
2024-03-13T14:05:55.797Z,0.20
2024-03-13T14:08:23.212Z,0.32
2024-03-13T14:10:58.339Z,0.20
2024-03-13T14:13:27.325Z,0.40
2024-03-13T14:15:54.430Z,0.45
2024-03-13T14:18:21.940Z,0.40
2024-03-13T14:20:49.337Z,0.28
2024-03-13T14:23:16.220Z,0.73
2024-03-13T14:25:43.254Z,0.82
2024-03-13T14:28:12.279Z,0.38
2024-03-13T14:30:39.450Z,1.02
2024-03-13T14:33:08.267Z,2.75
2024-03-13T14:35:35.605Z,2.00
2024-03-13T14:38:03.019Z,1.63
2024-03-13T14:40:30.415Z,0.40
2024-03-13T14:42:57.586Z,0.20
2024-03-13T14:45:24.388Z,0.40
2024-03-13T14:47:52.736Z,0.40
2024-03-13T14:50:21.222Z,0.20
2024-03-13T14:55:21.676Z,0.30
2024-03-13T14:57:49.375Z,0.40
2024-03-13T15:00:17.997Z,0.63
2024-03-13T15:02:44.994Z,0.50
2024-03-13T15:05:12.107Z,1.25
2024-03-13T15:07:38.911Z,1.80
2024-03-13T15:10:06.169Z,1.10
2024-03-13T15:12:33.840Z,0.40
2024-03-13T15:15:01.152Z,0.35
2024-03-13T15:17:32.239Z,0.30
2024-03-13T15:19:59.694Z,0.52
2024-03-13T15:22:27.400Z,0.57
2024-03-13T15:24:54.041Z,1.27
2024-03-13T15:27:20.842Z,0.70
2024-03-13T15:29:47.575Z,0.50
2024-03-13T15:34:40.989Z,0.43
2024-03-13T15:37:07.646Z,0.65
2024-03-13T15:42:00.921Z,0.43
2024-03-13T15:46:55.588Z,1.13
2024-03-13T15:49:22.332Z,2.88
2024-03-13T15:51:49.052Z,0.50
2024-03-13T15:54:16.395Z,0.30
2024-03-13T15:56:43.570Z,0.40
2024-03-13T15:59:12.916Z,0.38
2024-03-13T16:01:39.914Z,0.47
2024-03-13T16:04:06.654Z,0.50
2024-03-13T16:06:39.475Z,0.43
2024-03-13T16:09:18.210Z,0.45
2024-03-13T16:11:52.114Z,0.52
2024-03-13T16:14:25.433Z,0.38
2024-03-13T16:16:56.760Z,0.32
2024-03-13T16:19:31.130Z,0.52
2024-03-13T16:22:01.219Z,0.57
2024-03-13T16:24:31.936Z,0.85
2024-03-13T16:27:02.574Z,0.80
2024-03-13T16:29:33.035Z,0.95
2024-03-13T16:32:01.973Z,1.02
2024-03-13T16:34:31.825Z,0.93
2024-03-13T16:37:00.749Z,1.40
2024-03-13T16:39:35.663Z,1.08
2024-03-13T16:42:07.264Z,1.10
2024-03-13T16:44:40.830Z,1.23
2024-03-13T16:47:09.718Z,1.52
2024-03-13T16:49:37.005Z,1.33
2024-03-13T16:52:05.295Z,1.50
2024-03-13T16:54:38.028Z,1.00
2024-03-13T16:57:05.592Z,1.67
2024-03-13T16:59:33.174Z,1.02
2024-03-13T17:02:00.607Z,1.27
2024-03-13T17:04:27.574Z,0.82
2024-03-13T17:06:54.851Z,1.75
2024-03-13T17:09:23.132Z,1.33
2024-03-13T17:11:50.268Z,2.08
2024-03-13T17:14:17.824Z,2.28
2024-03-13T17:16:46.088Z,1.58
2024-03-13T17:19:13.449Z,2.00
2024-03-13T17:21:40.979Z,1.48
2024-03-13T17:24:10.280Z,1.80
2024-03-13T17:26:37.697Z,1.80
2024-03-13T17:29:05.602Z,1.40
2024-03-13T17:31:33.706Z,1.50
2024-03-13T17:34:01.418Z,1.48
2024-03-13T17:36:28.571Z,2.00
2024-03-13T17:38:55.919Z,1.80
2024-03-13T17:41:23.283Z,2.13
2024-03-13T17:43:51.469Z,2.30
2024-03-13T17:46:18.571Z,2.30
2024-03-13T17:48:45.704Z,2.08
2024-03-13T17:51:12.619Z,2.45
2024-03-13T17:56:08.204Z,3.40
2024-03-13T17:58:36.354Z,3.38
2024-03-13T18:01:03.200Z,2.70
2024-03-13T18:03:30.293Z,1.80
2024-03-13T18:05:57.041Z,1.88
2024-03-13T18:10:50.251Z,1.73
2024-03-13T18:15:44.881Z,2.05
2024-03-13T18:18:11.974Z,2.22
2024-03-13T18:20:40.274Z,1.98
2024-03-13T18:23:07.401Z,1.70
2024-03-13T18:25:34.043Z,2.58
2024-03-13T18:28:00.737Z,2.13
2024-03-13T18:32:55.721Z,1.52
2024-03-13T18:35:22.575Z,2.55
2024-03-13T18:37:49.263Z,1.73
2024-03-13T18:40:17.717Z,1.45
2024-03-13T18:42:44.690Z,1.63
2024-03-13T18:45:12.125Z,2.42
2024-03-13T18:47:39.600Z,1.77
2024-03-13T18:50:12.428Z,1.90
2024-03-13T18:52:43.763Z,1.75
2024-03-13T18:55:12.614Z,2.70
2024-03-13T18:57:39.470Z,2.80
2024-03-13T19:00:09.161Z,2.53
2024-03-13T19:02:36.272Z,2.08
2024-03-13T19:05:11.001Z,2.00
2024-03-13T19:07:45.144Z,2.65
2024-03-13T19:12:38.935Z,3.05
2024-03-13T19:15:06.069Z,2.90
2024-03-13T19:17:35.672Z,3.00
2024-03-13T19:20:04.226Z,2.80
2024-03-13T19:22:31.141Z,2.50
2024-03-13T19:24:57.844Z,3.42
2024-03-13T19:29:51.399Z,2.92
2024-03-13T19:34:45.066Z,5.75
2024-03-13T19:37:12.037Z,3.72
2024-03-13T19:39:38.831Z,3.67
2024-03-13T19:44:34.175Z,3.78
2024-03-13T19:47:00.875Z,3.42
2024-03-13T19:51:55.799Z,3.45
2024-03-13T19:54:24.498Z,4.15
2024-03-13T19:56:52.832Z,4.32
2024-03-13T20:01:46.066Z,3.50
2024-03-13T20:04:13.354Z,4.32
2024-03-13T20:06:44.562Z,3.63
2024-03-13T20:09:15.544Z,3.80
2024-03-13T20:11:43.023Z,3.92
2024-03-13T20:14:14.612Z,4.43
2024-03-13T20:16:44.143Z,4.13
2024-03-13T20:19:13.755Z,4.28
2024-03-13T20:21:40.666Z,4.15
2024-03-13T20:24:08.171Z,3.83
2024-03-13T20:26:42.272Z,4.05
2024-03-13T20:29:09.702Z,4.40
2024-03-13T20:31:39.309Z,4.30
2024-03-13T20:34:06.123Z,4.45
2024-03-13T20:36:35.077Z,4.45
2024-03-13T20:39:01.768Z,3.60
2024-03-13T20:43:55.710Z,3.28
2024-03-13T20:48:49.349Z,3.47
2024-03-13T20:51:16.716Z,3.78
2024-03-13T20:53:44.923Z,3.40
2024-03-13T20:56:12.561Z,3.60
2024-03-13T20:58:41.140Z,3.40
2024-03-13T21:01:09.034Z,3.97
2024-03-13T21:03:35.746Z,3.42
2024-03-13T21:06:04.255Z,3.78
2024-03-13T21:08:31.180Z,3.47
2024-03-13T21:10:58.746Z,4.50
2024-03-13T21:13:28.287Z,4.82
2024-03-13T21:16:00.732Z,4.95
2024-03-13T21:18:39.365Z,4.72
2024-03-13T21:21:08.122Z,4.72
2024-03-13T21:23:35.315Z,4.97
2024-03-13T21:26:08.693Z,5.45
2024-03-13T21:28:36.139Z,5.20
2024-03-13T21:31:03.517Z,5.18
2024-03-13T21:33:30.883Z,4.63
2024-03-13T21:35:57.867Z,4.32
2024-03-13T21:40:51.215Z,4.13
2024-03-13T21:43:20.644Z,4.70
2024-03-13T21:45:47.678Z,4.50
2024-03-13T21:50:43.937Z,4.43
2024-03-13T21:53:14.696Z,5.13
2024-03-13T21:55:41.348Z,5.18
2024-03-13T22:00:36.182Z,4.80
2024-03-13T22:03:03.071Z,5.63
2024-03-13T22:05:30.019Z,4.72
2024-03-13T22:07:56.721Z,5.00
2024-03-13T22:12:56.079Z,6.28
2024-03-13T22:15:23.466Z,5.82
2024-03-13T22:17:50.250Z,6.50
2024-03-13T22:20:17.642Z,5.32
2024-03-13T22:22:44.838Z,5.75
2024-03-13T22:25:11.947Z,7.15
2024-03-13T22:30:07.746Z,5.10
2024-03-13T22:32:34.947Z,5.50
2024-03-13T22:35:01.728Z,4.85
2024-03-13T22:39:55.516Z,4.30
2024-03-13T22:42:23.561Z,4.63
2024-03-13T22:44:50.448Z,5.57
2024-03-13T22:47:17.283Z,4.40
2024-03-13T22:49:46.677Z,4.65
2024-03-13T22:52:13.720Z,5.07
2024-03-13T22:54:40.363Z,4.32
2024-03-13T22:59:33.957Z,4.53
2024-03-13T23:04:28.939Z,4.95
2024-03-13T23:06:56.310Z,6.22
2024-03-13T23:09:23.773Z,6.30
2024-03-13T23:11:50.785Z,5.03
2024-03-13T23:16:44.154Z,5.20
2024-03-13T23:19:10.833Z,5.13
2024-03-13T23:21:37.483Z,5.18
2024-03-13T23:24:04.660Z,5.38
2024-03-13T23:26:31.751Z,5.78
2024-03-13T23:28:59.575Z,5.05
2024-03-13T23:31:26.781Z,5.80
2024-03-13T23:33:53.793Z,7.53
2024-03-13T23:36:22.415Z,5.00
2024-03-13T23:38:49.587Z,5.38
2024-03-13T23:41:18.339Z,5.20
2024-03-13T23:46:15.762Z,5.47
2024-03-13T23:48:42.822Z,5.05
2024-03-13T23:51:11.784Z,6.07
2024-03-13T23:53:38.509Z,4.70
2024-03-13T23:56:05.834Z,4.85
2024-03-13T23:58:34.163Z,4.70
